sensor_id;sensor_type;location;lat;lon;timestamp;P1;durP1;ratioP1;P2;durP2;ratioP2
53801;SDS011;39709;53.334;6.534;2023-07-13T00:02:14;6.60;;;1.67;;
53801;SDS011;39709;53.334;6.534;2023-07-13T00:04:41;7.85;;;1.70;;
53801;SDS011;39709;53.334;6.534;2023-07-13T00:07:07;13.43;;;2.13;;
53801;SDS011;39709;53.334;6.534;2023-07-13T00:09:33;8.45;;;2.10;;
53801;SDS011;39709;53.334;6.534;2023-07-13T00:11:59;12.13;;;2.15;;
53801;SDS011;39709;53.334;6.534;2023-07-13T00:14:26;7.10;;;2.00;;
53801;SDS011;39709;53.334;6.534;2023-07-13T00:16:52;18.50;;;2.23;;
53801;SDS011;39709;53.334;6.534;2023-07-13T00:19:18;8.27;;;2.00;;
53801;SDS011;39709;53.334;6.534;2023-07-13T00:21:44;6.70;;;1.67;;
53801;SDS011;39709;53.334;6.534;2023-07-13T00:24:11;7.50;;;1.50;;
53801;SDS011;39709;53.334;6.534;2023-07-13T00:26:38;11.18;;;1.90;;
53801;SDS011;39709;53.334;6.534;2023-07-13T00:29:04;11.30;;;2.00;;
53801;SDS011;39709;53.334;6.534;2023-07-13T00:31:33;10.23;;;2.10;;
53801;SDS011;39709;53.334;6.534;2023-07-13T00:33:59;8.98;;;1.88;;
53801;SDS011;39709;53.334;6.534;2023-07-13T00:36:25;8.32;;;1.60;;
53801;SDS011;39709;53.334;6.534;2023-07-13T00:38:51;7.57;;;1.90;;
53801;SDS011;39709;53.334;6.534;2023-07-13T00:41:17;9.50;;;1.65;;
53801;SDS011;39709;53.334;6.534;2023-07-13T00:43:43;8.35;;;1.77;;
53801;SDS011;39709;53.334;6.534;2023-07-13T00:46:11;7.97;;;1.77;;
53801;SDS011;39709;53.334;6.534;2023-07-13T00:48:40;9.07;;;1.60;;
53801;SDS011;39709;53.334;6.534;2023-07-13T00:51:08;7.47;;;1.60;;
53801;SDS011;39709;53.334;6.534;2023-07-13T00:53:35;7.97;;;1.48;;
53801;SDS011;39709;53.334;6.534;2023-07-13T00:56:01;10.93;;;2.13;;
53801;SDS011;39709;53.334;6.534;2023-07-13T00:58:28;11.27;;;2.07;;
53801;SDS011;39709;53.334;6.534;2023-07-13T01:00:54;9.00;;;2.08;;
53801;SDS011;39709;53.334;6.534;2023-07-13T01:03:20;8.32;;;1.55;;
53801;SDS011;39709;53.334;6.534;2023-07-13T01:05:46;10.13;;;2.40;;
53801;SDS011;39709;53.334;6.534;2023-07-13T01:08:14;8.55;;;2.58;;
53801;SDS011;39709;53.334;6.534;2023-07-13T01:10:40;7.53;;;1.73;;
53801;SDS011;39709;53.334;6.534;2023-07-13T01:13:15;9.05;;;2.20;;
53801;SDS011;39709;53.334;6.534;2023-07-13T01:15:44;8.13;;;2.07;;
53801;SDS011;39709;53.334;6.534;2023-07-13T01:18:13;8.68;;;1.80;;
53801;SDS011;39709;53.334;6.534;2023-07-13T01:20:53;11.65;;;2.10;;
53801;SDS011;39709;53.334;6.534;2023-07-13T01:23:21;11.30;;;1.90;;
53801;SDS011;39709;53.334;6.534;2023-07-13T01:25:47;8.23;;;1.60;;
53801;SDS011;39709;53.334;6.534;2023-07-13T01:28:13;10.73;;;2.10;;
53801;SDS011;39709;53.334;6.534;2023-07-13T01:30:42;9.90;;;1.98;;
53801;SDS011;39709;53.334;6.534;2023-07-13T01:33:10;9.03;;;2.07;;
53801;SDS011;39709;53.334;6.534;2023-07-13T01:35:37;8.68;;;1.90;;
53801;SDS011;39709;53.334;6.534;2023-07-13T01:38:03;9.73;;;1.70;;
53801;SDS011;39709;53.334;6.534;2023-07-13T01:40:29;9.67;;;2.10;;
53801;SDS011;39709;53.334;6.534;2023-07-13T01:42:55;8.02;;;1.67;;
53801;SDS011;39709;53.334;6.534;2023-07-13T01:45:22;8.57;;;1.77;;
53801;SDS011;39709;53.334;6.534;2023-07-13T01:47:48;6.07;;;1.43;;
53801;SDS011;39709;53.334;6.534;2023-07-13T01:50:14;8.43;;;1.88;;
53801;SDS011;39709;53.334;6.534;2023-07-13T01:52:40;9.23;;;1.63;;
53801;SDS011;39709;53.334;6.534;2023-07-13T01:55:05;6.78;;;1.70;;
53801;SDS011;39709;53.334;6.534;2023-07-13T01:57:32;9.18;;;1.95;;
53801;SDS011;39709;53.334;6.534;2023-07-13T01:59:58;7.93;;;1.90;;
53801;SDS011;39709;53.334;6.534;2023-07-13T02:02:24;7.93;;;1.52;;
53801;SDS011;39709;53.334;6.534;2023-07-13T02:04:50;7.57;;;1.95;;
53801;SDS011;39709;53.334;6.534;2023-07-13T02:07:15;10.87;;;2.00;;
53801;SDS011;39709;53.334;6.534;2023-07-13T02:09:41;6.85;;;1.63;;
53801;SDS011;39709;53.334;6.534;2023-07-13T02:12:07;8.13;;;2.30;;
53801;SDS011;39709;53.334;6.534;2023-07-13T02:14:33;9.20;;;1.95;;
53801;SDS011;39709;53.334;6.534;2023-07-13T02:16:59;6.72;;;1.70;;
53801;SDS011;39709;53.334;6.534;2023-07-13T02:19:24;9.57;;;1.70;;
53801;SDS011;39709;53.334;6.534;2023-07-13T02:21:50;8.45;;;1.80;;
53801;SDS011;39709;53.334;6.534;2023-07-13T02:24:16;5.47;;;1.50;;
53801;SDS011;39709;53.334;6.534;2023-07-13T02:26:44;7.85;;;1.45;;
53801;SDS011;39709;53.334;6.534;2023-07-13T02:29:10;5.60;;;1.25;;
53801;SDS011;39709;53.334;6.534;2023-07-13T02:31:36;5.40;;;1.13;;
53801;SDS011;39709;53.334;6.534;2023-07-13T02:34:02;5.00;;;1.10;;
53801;SDS011;39709;53.334;6.534;2023-07-13T02:36:29;5.50;;;0.90;;
53801;SDS011;39709;53.334;6.534;2023-07-13T02:38:55;5.30;;;0.80;;
53801;SDS011;39709;53.334;6.534;2023-07-13T02:41:21;4.80;;;0.77;;
53801;SDS011;39709;53.334;6.534;2023-07-13T02:43:48;4.50;;;0.50;;
53801;SDS011;39709;53.334;6.534;2023-07-13T02:46:14;3.95;;;0.80;;
53801;SDS011;39709;53.334;6.534;2023-07-13T02:48:40;5.03;;;0.60;;
53801;SDS011;39709;53.334;6.534;2023-07-13T02:51:05;7.10;;;0.77;;
53801;SDS011;39709;53.334;6.534;2023-07-13T02:53:32;4.93;;;0.85;;
53801;SDS011;39709;53.334;6.534;2023-07-13T02:55:58;5.33;;;1.23;;
53801;SDS011;39709;53.334;6.534;2023-07-13T02:58:24;5.20;;;0.70;;
53801;SDS011;39709;53.334;6.534;2023-07-13T03:00:50;5.13;;;0.65;;
53801;SDS011;39709;53.334;6.534;2023-07-13T03:03:16;4.05;;;0.50;;
53801;SDS011;39709;53.334;6.534;2023-07-13T03:05:43;2.90;;;0.55;;
53801;SDS011;39709;53.334;6.534;2023-07-13T03:08:15;4.27;;;0.83;;
53801;SDS011;39709;53.334;6.534;2023-07-13T03:10:41;5.07;;;0.90;;
53801;SDS011;39709;53.334;6.534;2023-07-13T03:13:07;3.83;;;0.65;;
53801;SDS011;39709;53.334;6.534;2023-07-13T03:15:32;6.37;;;0.80;;
53801;SDS011;39709;53.334;6.534;2023-07-13T03:17:58;4.20;;;0.68;;
53801;SDS011;39709;53.334;6.534;2023-07-13T03:20:24;5.17;;;1.00;;
53801;SDS011;39709;53.334;6.534;2023-07-13T03:22:49;4.68;;;0.77;;
53801;SDS011;39709;53.334;6.534;2023-07-13T03:25:15;2.07;;;0.67;;
53801;SDS011;39709;53.334;6.534;2023-07-13T03:27:41;3.83;;;0.70;;
53801;SDS011;39709;53.334;6.534;2023-07-13T03:30:07;5.03;;;0.90;;
53801;SDS011;39709;53.334;6.534;2023-07-13T03:32:33;4.53;;;0.70;;
53801;SDS011;39709;53.334;6.534;2023-07-13T03:34:59;4.27;;;0.80;;
53801;SDS011;39709;53.334;6.534;2023-07-13T03:37:24;5.97;;;0.88;;
53801;SDS011;39709;53.334;6.534;2023-07-13T03:39:50;8.48;;;1.80;;
53801;SDS011;39709;53.334;6.534;2023-07-13T03:42:16;5.17;;;0.80;;
53801;SDS011;39709;53.334;6.534;2023-07-13T03:44:42;4.68;;;0.80;;
53801;SDS011;39709;53.334;6.534;2023-07-13T03:47:11;6.73;;;0.93;;
53801;SDS011;39709;53.334;6.534;2023-07-13T03:49:37;4.78;;;1.10;;
53801;SDS011;39709;53.334;6.534;2023-07-13T03:52:02;6.10;;;1.10;;
53801;SDS011;39709;53.334;6.534;2023-07-13T03:54:29;6.00;;;1.10;;
53801;SDS011;39709;53.334;6.534;2023-07-13T03:56:54;5.05;;;0.90;;
53801;SDS011;39709;53.334;6.534;2023-07-13T03:59:20;4.93;;;1.10;;
53801;SDS011;39709;53.334;6.534;2023-07-13T04:01:46;8.50;;;1.20;;
53801;SDS011;39709;53.334;6.534;2023-07-13T04:04:12;6.25;;;1.35;;
53801;SDS011;39709;53.334;6.534;2023-07-13T04:06:38;9.57;;;1.77;;
53801;SDS011;39709;53.334;6.534;2023-07-13T04:09:04;7.32;;;1.50;;
53801;SDS011;39709;53.334;6.534;2023-07-13T04:11:34;8.55;;;1.80;;
53801;SDS011;39709;53.334;6.534;2023-07-13T04:14:01;8.88;;;2.10;;
53801;SDS011;39709;53.334;6.534;2023-07-13T04:16:27;10.57;;;2.10;;
53801;SDS011;39709;53.334;6.534;2023-07-13T04:18:54;11.00;;;2.00;;
53801;SDS011;39709;53.334;6.534;2023-07-13T04:21:24;8.68;;;1.77;;
53801;SDS011;39709;53.334;6.534;2023-07-13T04:23:51;7.88;;;1.75;;
53801;SDS011;39709;53.334;6.534;2023-07-13T04:26:17;9.98;;;2.10;;
53801;SDS011;39709;53.334;6.534;2023-07-13T04:28:46;5.77;;;1.73;;
53801;SDS011;39709;53.334;6.534;2023-07-13T04:31:12;7.25;;;2.10;;
53801;SDS011;39709;53.334;6.534;2023-07-13T04:33:38;8.27;;;2.10;;
53801;SDS011;39709;53.334;6.534;2023-07-13T04:36:04;11.32;;;1.95;;
53801;SDS011;39709;53.334;6.534;2023-07-13T04:38:31;9.07;;;1.57;;
53801;SDS011;39709;53.334;6.534;2023-07-13T04:41:02;7.00;;;1.67;;
53801;SDS011;39709;53.334;6.534;2023-07-13T04:43:32;10.77;;;1.90;;
53801;SDS011;39709;53.334;6.534;2023-07-13T04:46:02;8.48;;;2.10;;
53801;SDS011;39709;53.334;6.534;2023-07-13T04:48:30;8.48;;;1.58;;
53801;SDS011;39709;53.334;6.534;2023-07-13T04:50:56;9.13;;;2.03;;
53801;SDS011;39709;53.334;6.534;2023-07-13T04:53:24;10.27;;;1.75;;
53801;SDS011;39709;53.334;6.534;2023-07-13T04:55:50;11.50;;;1.90;;
53801;SDS011;39709;53.334;6.534;2023-07-13T04:58:15;9.10;;;1.97;;
53801;SDS011;39709;53.334;6.534;2023-07-13T05:00:42;9.05;;;2.05;;
53801;SDS011;39709;53.334;6.534;2023-07-13T05:03:08;9.48;;;1.90;;
53801;SDS011;39709;53.334;6.534;2023-07-13T05:05:34;7.70;;;1.50;;
53801;SDS011;39709;53.334;6.534;2023-07-13T05:07:59;7.35;;;1.42;;
53801;SDS011;39709;53.334;6.534;2023-07-13T05:10:25;8.57;;;1.77;;
53801;SDS011;39709;53.334;6.534;2023-07-13T05:12:51;9.02;;;2.15;;
53801;SDS011;39709;53.334;6.534;2023-07-13T05:15:17;9.70;;;1.87;;
53801;SDS011;39709;53.334;6.534;2023-07-13T05:17:46;6.88;;;1.60;;
53801;SDS011;39709;53.334;6.534;2023-07-13T05:20:13;9.95;;;2.10;;
53801;SDS011;39709;53.334;6.534;2023-07-13T05:22:39;6.40;;;1.67;;
53801;SDS011;39709;53.334;6.534;2023-07-13T05:25:05;9.67;;;1.93;;
53801;SDS011;39709;53.334;6.534;2023-07-13T05:27:31;8.55;;;1.52;;
53801;SDS011;39709;53.334;6.534;2023-07-13T05:29:58;7.30;;;1.58;;
53801;SDS011;39709;53.334;6.534;2023-07-13T05:32:23;8.17;;;1.80;;
53801;SDS011;39709;53.334;6.534;2023-07-13T05:34:49;9.93;;;1.88;;
53801;SDS011;39709;53.334;6.534;2023-07-13T05:37:15;8.27;;;1.87;;
53801;SDS011;39709;53.334;6.534;2023-07-13T05:39:40;6.63;;;1.70;;
53801;SDS011;39709;53.334;6.534;2023-07-13T05:42:06;8.23;;;1.47;;
53801;SDS011;39709;53.334;6.534;2023-07-13T05:44:32;8.88;;;1.50;;
53801;SDS011;39709;53.334;6.534;2023-07-13T05:46:58;10.90;;;1.90;;
53801;SDS011;39709;53.334;6.534;2023-07-13T05:49:23;7.78;;;1.70;;
53801;SDS011;39709;53.334;6.534;2023-07-13T05:51:49;10.13;;;1.40;;
53801;SDS011;39709;53.334;6.534;2023-07-13T05:54:15;9.63;;;1.67;;
53801;SDS011;39709;53.334;6.534;2023-07-13T05:56:40;7.07;;;1.50;;
53801;SDS011;39709;53.334;6.534;2023-07-13T05:59:06;10.63;;;1.60;;
53801;SDS011;39709;53.334;6.534;2023-07-13T06:01:32;6.83;;;1.60;;
53801;SDS011;39709;53.334;6.534;2023-07-13T06:03:58;5.35;;;1.58;;
53801;SDS011;39709;53.334;6.534;2023-07-13T06:06:23;6.43;;;1.50;;
53801;SDS011;39709;53.334;6.534;2023-07-13T06:08:49;9.70;;;1.50;;
53801;SDS011;39709;53.334;6.534;2023-07-13T06:11:17;7.40;;;1.70;;
53801;SDS011;39709;53.334;6.534;2023-07-13T06:13:47;4.60;;;1.58;;
53801;SDS011;39709;53.334;6.534;2023-07-13T06:16:13;10.98;;;1.90;;
53801;SDS011;39709;53.334;6.534;2023-07-13T06:18:40;6.22;;;1.35;;
53801;SDS011;39709;53.334;6.534;2023-07-13T06:21:10;7.57;;;1.30;;
53801;SDS011;39709;53.334;6.534;2023-07-13T06:23:39;5.70;;;1.50;;
53801;SDS011;39709;53.334;6.534;2023-07-13T06:26:05;5.18;;;1.40;;
53801;SDS011;39709;53.334;6.534;2023-07-13T06:28:31;9.30;;;1.75;;
53801;SDS011;39709;53.334;6.534;2023-07-13T06:30:58;5.45;;;1.25;;
53801;SDS011;39709;53.334;6.534;2023-07-13T06:33:24;8.20;;;1.33;;
53801;SDS011;39709;53.334;6.534;2023-07-13T06:35:50;7.28;;;1.25;;
53801;SDS011;39709;53.334;6.534;2023-07-13T06:38:16;5.63;;;1.45;;
53801;SDS011;39709;53.334;6.534;2023-07-13T06:40:42;7.10;;;1.10;;
53801;SDS011;39709;53.334;6.534;2023-07-13T06:43:07;5.90;;;1.40;;
53801;SDS011;39709;53.334;6.534;2023-07-13T06:45:40;8.03;;;2.00;;
53801;SDS011;39709;53.334;6.534;2023-07-13T06:48:12;5.78;;;1.15;;
53801;SDS011;39709;53.334;6.534;2023-07-13T06:50:38;7.97;;;1.40;;
53801;SDS011;39709;53.334;6.534;2023-07-13T06:53:04;5.23;;;1.10;;
53801;SDS011;39709;53.334;6.534;2023-07-13T06:55:29;7.45;;;1.30;;
53801;SDS011;39709;53.334;6.534;2023-07-13T06:57:55;7.00;;;1.50;;
53801;SDS011;39709;53.334;6.534;2023-07-13T07:00:21;5.72;;;1.42;;
53801;SDS011;39709;53.334;6.534;2023-07-13T07:02:47;4.43;;;1.07;;
53801;SDS011;39709;53.334;6.534;2023-07-13T07:05:12;6.10;;;1.20;;
53801;SDS011;39709;53.334;6.534;2023-07-13T07:07:38;5.93;;;1.20;;
53801;SDS011;39709;53.334;6.534;2023-07-13T07:10:04;4.78;;;0.98;;
53801;SDS011;39709;53.334;6.534;2023-07-13T07:12:30;5.63;;;1.05;;
53801;SDS011;39709;53.334;6.534;2023-07-13T07:14:55;5.83;;;1.13;;
53801;SDS011;39709;53.334;6.534;2023-07-13T07:17:21;5.00;;;1.13;;
53801;SDS011;39709;53.334;6.534;2023-07-13T07:19:47;4.47;;;1.00;;
53801;SDS011;39709;53.334;6.534;2023-07-13T07:22:12;6.05;;;1.10;;
53801;SDS011;39709;53.334;6.534;2023-07-13T07:24:38;3.57;;;0.80;;
53801;SDS011;39709;53.334;6.534;2023-07-13T07:27:04;4.30;;;0.83;;
53801;SDS011;39709;53.334;6.534;2023-07-13T07:29:30;3.63;;;0.80;;
53801;SDS011;39709;53.334;6.534;2023-07-13T07:31:55;6.18;;;0.80;;
53801;SDS011;39709;53.334;6.534;2023-07-13T07:34:21;6.00;;;1.13;;
53801;SDS011;39709;53.334;6.534;2023-07-13T07:36:47;3.95;;;0.95;;
53801;SDS011;39709;53.334;6.534;2023-07-13T07:39:12;6.97;;;0.97;;
53801;SDS011;39709;53.334;6.534;2023-07-13T07:41:38;5.83;;;1.10;;
53801;SDS011;39709;53.334;6.534;2023-07-13T07:44:04;4.10;;;0.70;;
53801;SDS011;39709;53.334;6.534;2023-07-13T07:46:31;4.95;;;0.98;;
53801;SDS011;39709;53.334;6.534;2023-07-13T07:48:57;4.37;;;0.80;;
53801;SDS011;39709;53.334;6.534;2023-07-13T07:51:23;5.90;;;0.90;;
53801;SDS011;39709;53.334;6.534;2023-07-13T07:53:48;5.67;;;0.90;;
53801;SDS011;39709;53.334;6.534;2023-07-13T07:56:14;4.63;;;0.80;;
53801;SDS011;39709;53.334;6.534;2023-07-13T07:58:41;3.83;;;0.80;;
53801;SDS011;39709;53.334;6.534;2023-07-13T08:01:07;4.00;;;0.70;;
53801;SDS011;39709;53.334;6.534;2023-07-13T08:03:33;5.22;;;1.13;;
53801;SDS011;39709;53.334;6.534;2023-07-13T08:05:59;5.00;;;1.10;;
53801;SDS011;39709;53.334;6.534;2023-07-13T08:08:25;5.40;;;0.90;;
53801;SDS011;39709;53.334;6.534;2023-07-13T08:10:51;4.68;;;1.02;;
53801;SDS011;39709;53.334;6.534;2023-07-13T08:13:17;5.13;;;0.93;;
53801;SDS011;39709;53.334;6.534;2023-07-13T08:15:43;6.30;;;1.23;;
53801;SDS011;39709;53.334;6.534;2023-07-13T08:18:09;2.75;;;0.73;;
53801;SDS011;39709;53.334;6.534;2023-07-13T08:20:38;4.35;;;1.00;;
53801;SDS011;39709;53.334;6.534;2023-07-13T08:23:04;3.27;;;0.97;;
53801;SDS011;39709;53.334;6.534;2023-07-13T08:25:31;5.07;;;1.27;;
53801;SDS011;39709;53.334;6.534;2023-07-13T08:27:57;4.85;;;1.20;;
53801;SDS011;39709;53.334;6.534;2023-07-13T08:30:23;5.20;;;1.23;;
53801;SDS011;39709;53.334;6.534;2023-07-13T08:32:48;7.60;;;1.42;;
53801;SDS011;39709;53.334;6.534;2023-07-13T08:35:14;5.23;;;1.00;;
53801;SDS011;39709;53.334;6.534;2023-07-13T08:37:41;5.75;;;1.30;;
53801;SDS011;39709;53.334;6.534;2023-07-13T08:40:08;5.25;;;1.33;;
53801;SDS011;39709;53.334;6.534;2023-07-13T08:45:13;5.50;;;1.40;;
53801;SDS011;39709;53.334;6.534;2023-07-13T08:47:42;3.95;;;1.20;;
53801;SDS011;39709;53.334;6.534;2023-07-13T08:50:23;5.40;;;1.30;;
53801;SDS011;39709;53.334;6.534;2023-07-13T08:52:53;7.20;;;1.50;;
53801;SDS011;39709;53.334;6.534;2023-07-13T08:55:22;5.57;;;0.90;;
53801;SDS011;39709;53.334;6.534;2023-07-13T08:57:56;4.82;;;1.40;;
53801;SDS011;39709;53.334;6.534;2023-07-13T09:00:34;3.85;;;1.33;;
53801;SDS011;39709;53.334;6.534;2023-07-13T09:03:23;7.00;;;1.50;;
53801;SDS011;39709;53.334;6.534;2023-07-13T09:05:53;4.15;;;1.17;;
53801;SDS011;39709;53.334;6.534;2023-07-13T09:11:05;4.28;;;1.40;;
53801;SDS011;39709;53.334;6.534;2023-07-13T09:16:29;6.63;;;1.40;;
53801;SDS011;39709;53.334;6.534;2023-07-13T09:18:56;6.55;;;1.52;;
53801;SDS011;39709;53.334;6.534;2023-07-13T09:21:35;4.70;;;1.00;;
53801;SDS011;39709;53.334;6.534;2023-07-13T09:24:51;4.13;;;1.20;;
53801;SDS011;39709;53.334;6.534;2023-07-13T09:27:10;5.63;;;1.67;;
53801;SDS011;39709;53.334;6.534;2023-07-13T09:29:45;7.18;;;1.38;;
53801;SDS011;39709;53.334;6.534;2023-07-13T09:32:15;6.78;;;1.30;;
53801;SDS011;39709;53.334;6.534;2023-07-13T09:34:52;6.50;;;1.17;;
53801;SDS011;39709;53.334;6.534;2023-07-13T09:37:23;7.47;;;1.40;;
53801;SDS011;39709;53.334;6.534;2023-07-13T09:39:53;4.55;;;1.20;;
53801;SDS011;39709;53.334;6.534;2023-07-13T09:42:21;5.20;;;1.23;;
53801;SDS011;39709;53.334;6.534;2023-07-13T09:47:27;4.03;;;0.93;;
53801;SDS011;39709;53.334;6.534;2023-07-13T09:49:58;4.33;;;1.00;;
53801;SDS011;39709;53.334;6.534;2023-07-13T09:52:26;6.85;;;0.90;;
53801;SDS011;39709;53.334;6.534;2023-07-13T09:54:53;4.68;;;1.00;;
53801;SDS011;39709;53.334;6.534;2023-07-13T09:57:25;5.13;;;0.93;;
53801;SDS011;39709;53.334;6.534;2023-07-13T09:59:52;4.38;;;0.70;;
53801;SDS011;39709;53.334;6.534;2023-07-13T10:02:25;4.77;;;0.80;;
53801;SDS011;39709;53.334;6.534;2023-07-13T10:05:11;5.07;;;0.75;;
53801;SDS011;39709;53.334;6.534;2023-07-13T10:07:43;3.50;;;0.60;;
53801;SDS011;39709;53.334;6.534;2023-07-13T10:10:14;2.70;;;0.77;;
53801;SDS011;39709;53.334;6.534;2023-07-13T10:12:45;3.28;;;0.70;;
53801;SDS011;39709;53.334;6.534;2023-07-13T10:15:16;4.03;;;0.70;;
53801;SDS011;39709;53.334;6.534;2023-07-13T10:17:48;3.08;;;0.80;;
53801;SDS011;39709;53.334;6.534;2023-07-13T10:20:15;3.42;;;0.63;;
53801;SDS011;39709;53.334;6.534;2023-07-13T10:22:44;3.50;;;0.80;;
53801;SDS011;39709;53.334;6.534;2023-07-13T10:25:21;3.20;;;0.60;;
53801;SDS011;39709;53.334;6.534;2023-07-13T10:27:50;4.22;;;0.70;;
53801;SDS011;39709;53.334;6.534;2023-07-13T10:30:22;3.55;;;0.70;;
53801;SDS011;39709;53.334;6.534;2023-07-13T10:33:00;5.55;;;0.65;;
53801;SDS011;39709;53.334;6.534;2023-07-13T10:35:28;3.08;;;0.80;;
53801;SDS011;39709;53.334;6.534;2023-07-13T10:38:03;2.83;;;0.70;;
53801;SDS011;39709;53.334;6.534;2023-07-13T10:40:40;2.25;;;0.50;;
53801;SDS011;39709;53.334;6.534;2023-07-13T10:43:26;3.40;;;0.75;;
53801;SDS011;39709;53.334;6.534;2023-07-13T10:46:04;3.38;;;0.70;;
53801;SDS011;39709;53.334;6.534;2023-07-13T10:48:33;2.75;;;0.68;;
53801;SDS011;39709;53.334;6.534;2023-07-13T10:51:01;3.80;;;0.73;;
53801;SDS011;39709;53.334;6.534;2023-07-13T10:53:32;3.33;;;0.60;;
53801;SDS011;39709;53.334;6.534;2023-07-13T10:56:00;2.42;;;0.57;;
53801;SDS011;39709;53.334;6.534;2023-07-13T11:01:08;2.55;;;0.70;;
53801;SDS011;39709;53.334;6.534;2023-07-13T11:08:55;4.18;;;0.93;;
53801;SDS011;39709;53.334;6.534;2023-07-13T11:14:04;4.28;;;1.05;;
53801;SDS011;39709;53.334;6.534;2023-07-13T11:16:50;4.83;;;0.70;;
53801;SDS011;39709;53.334;6.534;2023-07-13T11:27:18;3.33;;;1.00;;
53801;SDS011;39709;53.334;6.534;2023-07-13T11:29:52;4.65;;;0.90;;
53801;SDS011;39709;53.334;6.534;2023-07-13T11:32:33;6.30;;;1.05;;
53801;SDS011;39709;53.334;6.534;2023-07-13T11:35:00;4.60;;;1.10;;
53801;SDS011;39709;53.334;6.534;2023-07-13T11:37:26;4.40;;;1.00;;
53801;SDS011;39709;53.334;6.534;2023-07-13T11:39:54;4.72;;;0.88;;
53801;SDS011;39709;53.334;6.534;2023-07-13T11:42:21;3.17;;;0.90;;
53801;SDS011;39709;53.334;6.534;2023-07-13T11:44:48;4.00;;;1.00;;
53801;SDS011;39709;53.334;6.534;2023-07-13T11:47:19;3.87;;;1.07;;
53801;SDS011;39709;53.334;6.534;2023-07-13T11:49:50;5.63;;;1.40;;
53801;SDS011;39709;53.334;6.534;2023-07-13T11:52:34;4.13;;;1.13;;
53801;SDS011;39709;53.334;6.534;2023-07-13T11:55:03;3.95;;;0.90;;
53801;SDS011;39709;53.334;6.534;2023-07-13T11:57:40;4.22;;;0.90;;
53801;SDS011;39709;53.334;6.534;2023-07-13T12:00:28;4.20;;;0.97;;
53801;SDS011;39709;53.334;6.534;2023-07-13T12:02:57;3.70;;;1.00;;
53801;SDS011;39709;53.334;6.534;2023-07-13T12:05:25;3.70;;;0.90;;
53801;SDS011;39709;53.334;6.534;2023-07-13T12:07:52;4.30;;;0.93;;
53801;SDS011;39709;53.334;6.534;2023-07-13T12:10:29;3.92;;;1.00;;
53801;SDS011;39709;53.334;6.534;2023-07-13T12:13:04;6.43;;;1.20;;
53801;SDS011;39709;53.334;6.534;2023-07-13T12:15:39;4.78;;;1.20;;
53801;SDS011;39709;53.334;6.534;2023-07-13T12:18:18;4.53;;;1.10;;
53801;SDS011;39709;53.334;6.534;2023-07-13T12:20:45;10.80;;;1.60;;
53801;SDS011;39709;53.334;6.534;2023-07-13T12:23:23;6.20;;;1.50;;
53801;SDS011;39709;53.334;6.534;2023-07-13T12:26:04;6.20;;;1.00;;
53801;SDS011;39709;53.334;6.534;2023-07-13T12:28:33;5.07;;;1.02;;
53801;SDS011;39709;53.334;6.534;2023-07-13T12:31:05;4.32;;;1.10;;
53801;SDS011;39709;53.334;6.534;2023-07-13T12:33:33;5.25;;;1.10;;
53801;SDS011;39709;53.334;6.534;2023-07-13T12:36:03;5.50;;;1.30;;
53801;SDS011;39709;53.334;6.534;2023-07-13T12:38:31;7.67;;;1.53;;
53801;SDS011;39709;53.334;6.534;2023-07-13T12:40:57;4.07;;;1.10;;
53801;SDS011;39709;53.334;6.534;2023-07-13T12:43:24;6.88;;;1.20;;
53801;SDS011;39709;53.334;6.534;2023-07-13T12:45:59;3.53;;;1.10;;
53801;SDS011;39709;53.334;6.534;2023-07-13T12:48:28;4.40;;;0.80;;
53801;SDS011;39709;53.334;6.534;2023-07-13T12:50:55;4.97;;;1.00;;
53801;SDS011;39709;53.334;6.534;2023-07-13T12:53:29;4.15;;;1.10;;
53801;SDS011;39709;53.334;6.534;2023-07-13T12:55:59;5.45;;;1.13;;
53801;SDS011;39709;53.334;6.534;2023-07-13T13:01:04;6.13;;;1.00;;
53801;SDS011;39709;53.334;6.534;2023-07-13T13:03:40;5.05;;;1.13;;
53801;SDS011;39709;53.334;6.534;2023-07-13T13:08:46;5.40;;;1.20;;
53801;SDS011;39709;53.334;6.534;2023-07-13T13:11:13;4.47;;;1.42;;
53801;SDS011;39709;53.334;6.534;2023-07-13T13:13:41;6.97;;;1.37;;
53801;SDS011;39709;53.334;6.534;2023-07-13T13:18:45;6.80;;;1.25;;
53801;SDS011;39709;53.334;6.534;2023-07-13T13:21:11;5.95;;;1.20;;
53801;SDS011;39709;53.334;6.534;2023-07-13T13:23:37;5.07;;;1.30;;
53801;SDS011;39709;53.334;6.534;2023-07-13T13:26:05;6.85;;;1.35;;
53801;SDS011;39709;53.334;6.534;2023-07-13T13:28:34;5.45;;;1.40;;
53801;SDS011;39709;53.334;6.534;2023-07-13T13:31:02;6.07;;;1.20;;
53801;SDS011;39709;53.334;6.534;2023-07-13T13:33:28;6.40;;;1.20;;
53801;SDS011;39709;53.334;6.534;2023-07-13T13:35:55;7.28;;;1.58;;
53801;SDS011;39709;53.334;6.534;2023-07-13T13:38:24;6.97;;;1.60;;
53801;SDS011;39709;53.334;6.534;2023-07-13T13:40:52;7.13;;;1.55;;
53801;SDS011;39709;53.334;6.534;2023-07-13T13:43:21;5.83;;;1.60;;
53801;SDS011;39709;53.334;6.534;2023-07-13T13:45:51;6.07;;;1.65;;
53801;SDS011;39709;53.334;6.534;2023-07-13T13:48:26;8.18;;;1.50;;
53801;SDS011;39709;53.334;6.534;2023-07-13T13:50:57;6.68;;;1.70;;
53801;SDS011;39709;53.334;6.534;2023-07-13T13:53:24;6.90;;;1.50;;
53801;SDS011;39709;53.334;6.534;2023-07-13T13:55:50;8.60;;;1.50;;
53801;SDS011;39709;53.334;6.534;2023-07-13T13:58:17;6.72;;;1.40;;
53801;SDS011;39709;53.334;6.534;2023-07-13T14:00:43;5.37;;;1.00;;
53801;SDS011;39709;53.334;6.534;2023-07-13T14:03:22;5.45;;;1.30;;
53801;SDS011;39709;53.334;6.534;2023-07-13T14:05:49;6.97;;;1.30;;
53801;SDS011;39709;53.334;6.534;2023-07-13T14:08:16;4.75;;;1.23;;
53801;SDS011;39709;53.334;6.534;2023-07-13T14:10:44;6.57;;;1.30;;
53801;SDS011;39709;53.334;6.534;2023-07-13T14:13:44;5.40;;;1.20;;
53801;SDS011;39709;53.334;6.534;2023-07-13T14:16:11;6.10;;;1.10;;
53801;SDS011;39709;53.334;6.534;2023-07-13T14:18:41;6.70;;;1.48;;
53801;SDS011;39709;53.334;6.534;2023-07-13T14:21:17;4.93;;;1.20;;
53801;SDS011;39709;53.334;6.534;2023-07-13T14:23:45;5.10;;;1.27;;
53801;SDS011;39709;53.334;6.534;2023-07-13T14:26:12;5.97;;;1.73;;
53801;SDS011;39709;53.334;6.534;2023-07-13T14:28:50;6.22;;;1.27;;
53801;SDS011;39709;53.334;6.534;2023-07-13T14:31:18;7.22;;;1.40;;
53801;SDS011;39709;53.334;6.534;2023-07-13T14:33:44;8.05;;;1.98;;
53801;SDS011;39709;53.334;6.534;2023-07-13T14:38:56;7.70;;;1.33;;
53801;SDS011;39709;53.334;6.534;2023-07-13T14:41:22;5.47;;;1.38;;
53801;SDS011;39709;53.334;6.534;2023-07-13T14:43:48;7.57;;;1.60;;
53801;SDS011;39709;53.334;6.534;2023-07-13T14:48:54;7.63;;;1.50;;
53801;SDS011;39709;53.334;6.534;2023-07-13T14:51:30;6.80;;;1.52;;
53801;SDS011;39709;53.334;6.534;2023-07-13T14:54:00;9.60;;;1.85;;
53801;SDS011;39709;53.334;6.534;2023-07-13T14:56:28;6.68;;;1.67;;
53801;SDS011;39709;53.334;6.534;2023-07-13T14:58:53;6.03;;;1.40;;
53801;SDS011;39709;53.334;6.534;2023-07-13T15:01:19;8.85;;;1.42;;
53801;SDS011;39709;53.334;6.534;2023-07-13T15:03:46;4.72;;;1.17;;
53801;SDS011;39709;53.334;6.534;2023-07-13T15:06:14;5.70;;;1.40;;
53801;SDS011;39709;53.334;6.534;2023-07-13T15:08:40;7.30;;;1.58;;
53801;SDS011;39709;53.334;6.534;2023-07-13T15:11:09;6.03;;;1.60;;
53801;SDS011;39709;53.334;6.534;2023-07-13T15:13:38;7.47;;;1.45;;
53801;SDS011;39709;53.334;6.534;2023-07-13T15:16:10;6.45;;;1.40;;
53801;SDS011;39709;53.334;6.534;2023-07-13T15:18:42;8.17;;;1.77;;
53801;SDS011;39709;53.334;6.534;2023-07-13T15:21:19;14.57;;;3.17;;
53801;SDS011;39709;53.334;6.534;2023-07-13T15:23:47;6.47;;;1.67;;
53801;SDS011;39709;53.334;6.534;2023-07-13T15:26:14;5.30;;;1.30;;
53801;SDS011;39709;53.334;6.534;2023-07-13T15:28:41;7.50;;;1.80;;
53801;SDS011;39709;53.334;6.534;2023-07-13T15:31:17;6.40;;;1.60;;
53801;SDS011;39709;53.334;6.534;2023-07-13T15:33:46;4.90;;;1.20;;
53801;SDS011;39709;53.334;6.534;2023-07-13T15:36:14;6.05;;;2.13;;
53801;SDS011;39709;53.334;6.534;2023-07-13T15:38:42;7.70;;;1.27;;